Aérodrome :
LOGIN :

S'inscrire | Disclaimer

   EN    FR    IT 

 










Légende :    VFR   VFR Marginal   IFR   IFR Intensif   IFR Très Intensif
Visi : 
Plafond : 
>= 8 km
>= 3000ft
5 à 8 km
1000 à 3000 ft
1500m à 5 km
500 à 1000 ft
800 à 1500m
200 à 500 ft
< 800m
< 200 ft
Symboles :   Orages  Brouillard  Fortes neiges  Fortes précipitations  Vent > 20 kt
SIGMETs :   Divers  Orages  Givrage  Turbulence  Onde Orograph.  Cendres Volcan.







- Altitude de l'aérodrome : -15 ft
- Code IATA : RTM


EHRD - Rotterdam Zestienhoven

DERNIER METAR :
  • 170725Z AUTO 26010KT 230V300 9999 NCD 21/16 Q1013 NOSIG

METARs EXPIRÉS :
  • 170655Z AUTO 24010KT 220V280 9999 NCD 21/17 Q1013 NOSIG
  • 170625Z AUTO 24010KT 220V280 9999 NCD 20/17 Q1013 NOSIG
  • 170555Z AUTO 24010KT 210V280 9999 NCD 20/16 Q1013 NOSIG
  • 170525Z AUTO 22008KT 190V260 9999 NCD 19/15 Q1013 NOSIG
  • 170455Z AUTO 23006KT 9999 NCD 18/14 Q1012 NOSIG

TAF TAF EHRD
Valide du 17 à 06h jusqu'au 18 à 12h UTC


170509Z 1706/1812 21005KT CAVOK
BECMG 1706/1709 26012G22KT 9999 SCT030
BECMG 1719/1722 20005KT CAVOK
PROB40 1802/1805 VRB03KT 4000 MIFG BR
BECMG 1809/1812 30008KT SCT030
Pas de NOTAMs connus pour ce terrain.



MET'MAP, la Météo Aéronautique d'un coup d'oeil ! - Copyright ORBIFLY Décembre 2007 - Disclaimer

ORBIFLY MET'MAP TEAM :

Programmation & Développement : Alexandra Zaïnal
Conception & Développement : Baudouin d'Aumeries
Co-Programmation & Développement : Marc-Olivier Méhu
Soutien technique & logistique : Manuel Goepfert

Contact : metmap@orbifly.com




SOURCES & CREDITS :

   NOAA